Time;durP1;ratioP1;P1;durP2;ratioP2;P2;SDS_P1;SDS_P2;PMS_P1;PMS_P2;Temp;Humidity;BMP_temperature;BMP_pressure;BME280_temperature;BME280_humidity;BME280_pressure;Samples;Min_cycle;Max_cycle;Signal;HPM_P1;HPM_P2
2023/03/11 00:00:21;;;;;;;1.50;1.40;;;1.50;99.90;;;;;;5086161;28;20215;-72
2023/03/11 00:02:50;;;;;;;1.60;1.50;;;1.50;99.90;;;;;;5073227;28;20189;-73
2023/03/11 00:05:20;;;;;;;1.50;1.40;;;1.40;99.90;;;;;;5073175;28;20254;-73
2023/03/11 00:07:47;;;;;;;1.50;1.30;;;1.40;99.90;;;;;;5072939;28;20268;-72
2023/03/11 00:10:16;;;;;;;2.83;1.67;;;1.40;99.90;;;;;;5072868;28;20227;-73
2023/03/11 00:12:42;;;;;;;4.07;1.57;;;1.40;99.90;;;;;;5072927;28;20220;-73
2023/03/11 00:15:10;;;;;;;1.40;1.30;;;1.30;99.90;;;;;;5072832;28;20201;-73
2023/03/11 00:17:37;;;;;;;1.60;1.50;;;1.30;99.90;;;;;;5073031;28;20236;-73
2023/03/11 00:20:05;;;;;;;1.70;1.60;;;1.30;99.90;;;;;;5072833;28;20256;-73
2023/03/11 00:22:34;;;;;;;1.40;1.30;;;1.30;99.90;;;;;;5072848;28;20237;-73
2023/03/11 00:25:00;;;;;;;1.40;1.30;;;1.30;99.90;;;;;;5072822;28;20251;-73
2023/03/11 00:27:27;;;;;;;1.60;1.50;;;1.30;99.90;;;;;;5072618;28;20205;-73
2023/03/11 00:29:53;;;;;;;1.50;1.40;;;1.30;99.90;;;;;;5072994;28;20205;-73
2023/03/11 00:32:20;;;;;;;1.60;1.50;;;1.30;99.90;;;;;;5072835;28;20236;-73
2023/03/11 00:34:47;;;;;;;1.60;1.50;;;1.30;99.90;;;;;;5072893;28;20201;-74
2023/03/11 00:37:13;;;;;;;2.07;1.50;;;1.30;99.90;;;;;;5072698;28;20200;-73
2023/03/11 00:39:41;;;;;;;1.60;1.50;;;1.20;99.90;;;;;;5072537;28;20260;-73
2023/03/11 00:42:08;;;;;;;2.13;1.77;;;1.20;99.90;;;;;;5076655;28;20224;-73
2023/03/11 00:44:34;;;;;;;1.53;1.43;;;1.20;99.90;;;;;;5076932;28;20702;-73
2023/03/11 00:47:01;;;;;;;2.20;2.00;;;1.20;99.90;;;;;;5076820;28;20228;-73
2023/03/11 00:49:28;;;;;;;1.87;1.67;;;1.20;99.90;;;;;;5076675;28;20236;-73
2023/03/11 00:51:54;;;;;;;2.40;2.00;;;1.20;99.90;;;;;;5076693;28;20243;-73
2023/03/11 00:54:21;;;;;;;2.40;1.57;;;1.20;99.90;;;;;;5076526;28;20235;-73
2023/03/11 00:56:49;;;;;;;2.03;1.83;;;1.20;99.90;;;;;;5076437;28;20228;-73
2023/03/11 00:59:15;;;;;;;2.07;1.87;;;1.20;99.90;;;;;;5076553;28;20225;-73
2023/03/11 01:01:42;;;;;;;3.20;2.40;;;1.20;99.90;;;;;;5076540;28;20244;-73
2023/03/11 01:04:08;;;;;;;1.97;1.77;;;1.10;99.90;;;;;;5076435;28;20602;-73
2023/03/11 01:06:35;;;;;;;2.17;1.93;;;0.90;99.90;;;;;;5076424;28;20244;-73
2023/03/11 01:09:03;;;;;;;2.20;2.00;;;0.90;99.90;;;;;;5076018;28;20233;-73
2023/03/11 01:11:30;;;;;;;2.10;1.90;;;0.80;99.90;;;;;;5076507;28;20193;-73
2023/03/11 01:13:58;;;;;;;3.77;2.20;;;0.80;99.90;;;;;;5076356;28;20225;-73
2023/03/11 01:16:25;;;;;;;2.10;1.90;;;0.80;99.90;;;;;;5076208;28;20225;-73
2023/03/11 01:18:51;;;;;;;2.20;2.00;;;0.80;99.90;;;;;;5076092;28;20227;-73
2023/03/11 01:21:18;;;;;;;2.40;2.20;;;0.80;99.90;;;;;;5076039;28;20232;-73
2023/03/11 01:23:45;;;;;;;2.40;2.20;;;0.80;99.90;;;;;;5075911;28;20235;-73
2023/03/11 01:26:11;;;;;;;2.40;2.20;;;0.80;99.90;;;;;;5076125;28;20232;-73
2023/03/11 01:28:38;;;;;;;2.80;2.60;;;0.80;99.90;;;;;;5075850;28;20579;-73
2023/03/11 01:31:06;;;;;;;3.13;2.40;;;0.80;99.90;;;;;;5075895;28;20228;-73
2023/03/11 01:33:32;;;;;;;2.37;2.10;;;0.80;99.90;;;;;;5075771;28;20229;-73
2023/03/11 01:35:59;;;;;;;3.00;2.40;;;0.80;99.90;;;;;;5075823;28;20208;-73
2023/03/11 01:38:26;;;;;;;2.50;2.30;;;0.80;99.90;;;;;;5075535;28;20229;-73
2023/03/11 01:40:52;;;;;;;2.30;2.10;;;0.80;99.90;;;;;;5075718;28;20228;-72
2023/03/11 01:43:46;;;;;;;2.50;2.30;;;0.80;99.90;;;;;;5075728;28;20221;-72
2023/03/11 01:46:18;;;;;;;2.83;2.10;;;0.80;99.90;;;;;;5075720;28;20239;-72
2023/03/11 01:48:47;;;;;;;2.60;2.40;;;0.80;99.90;;;;;;5075513;28;20220;-73
2023/03/11 01:51:15;;;;;;;2.27;2.07;;;0.70;99.90;;;;;;5075312;28;20255;-73
2023/03/11 01:53:42;;;;;;;2.90;2.10;;;0.80;99.90;;;;;;5075052;28;20243;-73
2023/03/11 01:56:09;;;;;;;2.63;2.40;;;0.80;99.90;;;;;;5075563;28;20196;-73
2023/03/11 01:58:43;;;;;;;2.33;2.13;;;0.80;99.90;;;;;;5075271;28;20229;-72
2023/03/11 02:01:11;;;;;;;3.23;2.13;;;0.80;99.90;;;;;;5075242;28;20200;-72
2023/03/11 02:03:41;;;;;;;1.83;1.60;;;0.70;99.90;;;;;;5075414;28;20232;-72
2023/03/11 02:06:12;;;;;;;2.63;2.10;;;0.70;99.90;;;;;;5075387;28;20211;-72
2023/03/11 02:08:39;;;;;;;2.30;2.03;;;0.70;99.90;;;;;;5075239;28;20251;-73
2023/03/11 02:11:09;;;;;;;2.30;2.00;;;0.70;99.90;;;;;;5075179;28;20240;-72
2023/03/11 02:13:37;;;;;;;2.93;2.00;;;0.60;99.90;;;;;;5075090;28;20244;-72
2023/03/11 02:16:04;;;;;;;2.20;1.93;;;0.60;99.90;;;;;;5074911;28;20645;-72
2023/03/11 02:18:31;;;;;;;2.10;1.87;;;0.50;99.90;;;;;;5075186;28;20232;-72
2023/03/11 02:21:07;;;;;;;2.30;2.10;;;0.40;99.90;;;;;;5074968;28;20256;-72
2023/03/11 02:23:40;;;;;;;2.47;1.90;;;0.30;99.90;;;;;;5074963;28;20224;-72
2023/03/11 02:26:12;;;;;;;1.90;1.70;;;0.20;99.90;;;;;;5074897;28;20258;-72
2023/03/11 02:28:42;;;;;;;4.43;2.20;;;0.10;99.90;;;;;;5075123;28;20224;-72
2023/03/11 02:31:09;;;;;;;2.00;1.80;;;0.10;99.90;;;;;;5074931;28;20231;-72
2023/03/11 02:33:36;;;;;;;1.70;1.60;;;0.10;99.90;;;;;;5074930;28;20220;-72
2023/03/11 02:36:04;;;;;;;1.83;1.47;;;0.00;99.90;;;;;;5074757;28;20196;-72
2023/03/11 02:38:30;;;;;;;3.03;1.90;;;0.00;99.90;;;;;;5074635;28;20233;-73
2023/03/11 02:40:58;;;;;;;1.80;1.50;;;-0.10;99.90;;;;;;5074372;28;20311;-72
2023/03/11 02:43:33;;;;;;;1.60;1.50;;;-0.10;99.90;;;;;;5074701;28;20227;-73
2023/03/11 02:46:02;;;;;;;1.77;1.50;;;0.00;99.90;;;;;;5074668;28;20204;-72
2023/03/11 02:48:29;;;;;;;1.80;1.60;;;0.00;99.90;;;;;;5074454;28;20228;-73
2023/03/11 02:50:56;;;;;;;2.00;1.60;;;0.00;99.90;;;;;;5074365;28;20232;-72
2023/03/11 02:53:24;;;;;;;1.67;1.50;;;0.00;99.90;;;;;;5074260;28;20224;-72
2023/03/11 02:55:50;;;;;;;1.30;1.20;;;0.00;99.90;;;;;;5074437;28;20251;-72
2023/03/11 02:58:17;;;;;;;2.37;1.47;;;-0.10;99.90;;;;;;5074380;28;20236;-73
2023/03/11 03:00:43;;;;;;;1.67;1.20;;;0.00;99.90;;;;;;5074179;28;20628;-73
2023/03/11 03:03:11;;;;;;;2.47;1.33;;;0.00;99.90;;;;;;5073916;28;20197;-73
2023/03/11 03:05:38;;;;;;;1.50;1.20;;;0.00;99.90;;;;;;5074356;28;20232;-73
2023/03/11 03:08:05;;;;;;;1.50;1.20;;;0.00;99.90;;;;;;5073832;28;20279;-72
2023/03/11 03:10:31;;;;;;;1.60;1.27;;;0.00;99.90;;;;;;5074123;28;20236;-72
2023/03/11 03:12:58;;;;;;;2.90;1.30;;;0.00;99.90;;;;;;5073820;28;20606;-72
2023/03/11 03:15:25;;;;;;;1.30;1.20;;;0.00;99.90;;;;;;5073852;28;20197;-73
2023/03/11 03:17:51;;;;;;;2.57;1.37;;;0.00;99.90;;;;;;5073746;28;20668;-72
2023/03/11 03:20:21;;;;;;;3.13;1.27;;;0.10;99.90;;;;;;5073692;28;20224;-72
2023/03/11 03:22:49;;;;;;;1.93;1.23;;;0.10;99.90;;;;;;5074295;28;20197;-72
2023/03/11 03:25:15;;;;;;;3.70;1.33;;;0.10;99.90;;;;;;5073829;28;20216;-72
2023/03/11 03:27:42;;;;;;;1.20;1.10;;;0.00;99.90;;;;;;5073866;28;20221;-72
2023/03/11 03:30:10;;;;;;;2.03;1.30;;;0.00;99.90;;;;;;5073683;28;20229;-72
2023/03/11 03:32:37;;;;;;;2.23;1.27;;;0.00;99.90;;;;;;5072461;28;20260;-72
2023/03/11 03:35:05;;;;;;;1.97;1.77;;;0.00;99.90;;;;;;5073618;28;20201;-73
2023/03/11 03:37:35;;;;;;;2.40;1.20;;;0.00;99.90;;;;;;5073408;28;20625;-72
2023/03/11 03:40:06;;;;;;;1.63;1.10;;;0.00;99.90;;;;;;5073567;28;20294;-73
2023/03/11 03:42:33;;;;;;;2.03;1.00;;;-0.10;99.90;;;;;;5073532;28;20197;-73
2023/03/11 03:44:59;;;;;;;1.33;0.90;;;-0.10;99.90;;;;;;5073345;28;20246;-72
2023/03/11 03:47:26;;;;;;;2.80;1.10;;;-0.10;99.90;;;;;;5073172;28;20676;-72
2023/03/11 03:49:53;;;;;;;1.43;1.10;;;-0.10;99.90;;;;;;5073480;28;20220;-72
2023/03/11 03:52:19;;;;;;;4.13;1.30;;;-0.10;99.90;;;;;;5073362;28;20656;-72
2023/03/11 03:54:47;;;;;;;1.23;1.13;;;-0.10;99.90;;;;;;5073453;28;20193;-72
2023/03/11 03:57:14;;;;;;;2.07;1.43;;;-0.20;99.90;;;;;;5073265;28;20239;-72
2023/03/11 03:59:40;;;;;;;1.57;1.13;;;-0.20;99.90;;;;;;5073308;28;20259;-72
2023/03/11 04:02:07;;;;;;;2.50;1.30;;;-0.20;99.90;;;;;;5073156;28;20254;-72
2023/03/11 04:04:34;;;;;;;1.83;1.30;;;-0.20;99.90;;;;;;5073244;28;20233;-72
2023/03/11 04:07:00;;;;;;;4.17;1.20;;;-0.20;99.90;;;;;;5073271;28;20237;-73
2023/03/11 04:09:27;;;;;;;2.27;1.30;;;-0.10;99.90;;;;;;5073130;28;20232;-72
2023/03/11 04:11:55;;;;;;;1.67;1.10;;;-0.10;99.90;;;;;;5072999;28;20197;-72
2023/03/11 04:14:21;;;;;;;2.10;1.20;;;-0.10;99.90;;;;;;5072637;28;20229;-73
2023/03/11 04:16:48;;;;;;;1.80;1.30;;;-0.10;99.90;;;;;;5072584;28;20714;-72
2023/03/11 04:19:14;;;;;;;2.97;1.43;;;-0.10;99.90;;;;;;5073091;28;20232;-73
2023/03/11 04:21:41;;;;;;;3.27;1.53;;;-0.10;99.90;;;;;;5073029;28;20232;-72
2023/03/11 04:24:08;;;;;;;2.57;1.40;;;0.00;99.90;;;;;;5072916;28;20228;-73
2023/03/11 04:26:35;;;;;;;4.20;1.30;;;0.00;99.90;;;;;;5072855;28;20244;-72
2023/03/11 04:29:03;;;;;;;2.90;1.40;;;0.00;99.90;;;;;;5072812;28;20646;-72
2023/03/11 04:31:29;;;;;;;3.00;1.30;;;-0.10;99.90;;;;;;5072987;28;20672;-72
2023/03/11 04:33:56;;;;;;;1.77;1.20;;;-0.10;99.90;;;;;;5072954;28;20224;-72
2023/03/11 04:36:22;;;;;;;2.27;1.23;;;0.00;99.90;;;;;;5073011;28;20238;-72
2023/03/11 04:38:49;;;;;;;3.10;1.40;;;-0.10;99.90;;;;;;5072858;28;20280;-72
2023/03/11 04:41:16;;;;;;;1.50;1.10;;;-0.10;99.90;;;;;;5072700;28;20259;-72
2023/03/11 04:43:42;;;;;;;1.50;1.20;;;0.00;99.90;;;;;;5072681;28;20228;-72
2023/03/11 04:46:10;;;;;;;2.13;1.40;;;0.00;99.90;;;;;;5072941;28;20225;-72
2023/03/11 04:48:37;;;;;;;3.60;1.70;;;0.00;99.90;;;;;;5072797;28;20246;-72
2023/03/11 04:51:04;;;;;;;1.77;1.30;;;0.00;99.90;;;;;;5072696;28;20330;-72
2023/03/11 04:53:30;;;;;;;5.13;1.53;;;0.00;99.90;;;;;;5072510;28;20240;-72
2023/03/11 04:55:57;;;;;;;1.67;1.30;;;0.10;99.90;;;;;;5072466;28;20235;-72
2023/03/11 04:58:24;;;;;;;2.20;1.40;;;0.00;99.90;;;;;;5072406;28;20224;-72
2023/03/11 05:00:51;;;;;;;2.43;1.53;;;0.00;99.90;;;;;;5072561;28;20612;-73
2023/03/11 05:03:19;;;;;;;3.33;1.50;;;0.00;99.90;;;;;;5072854;28;20236;-72
2023/03/11 05:05:45;;;;;;;3.73;1.53;;;0.00;99.90;;;;;;5072491;28;20239;-72
2023/03/11 05:08:12;;;;;;;1.83;1.50;;;-0.10;99.90;;;;;;5072250;28;20225;-72
2023/03/11 05:10:40;;;;;;;2.87;1.40;;;-0.10;99.90;;;;;;5072328;28;20339;-72
2023/03/11 05:13:07;;;;;;;4.83;1.60;;;-0.10;99.90;;;;;;5072588;28;20201;-73
2023/03/11 05:15:35;;;;;;;4.00;1.60;;;-0.10;99.90;;;;;;5072226;28;20233;-72
2023/03/11 05:18:02;;;;;;;5.20;1.83;;;-0.10;99.90;;;;;;5072316;28;20197;-72
2023/03/11 05:20:31;;;;;;;3.73;1.73;;;-0.10;99.90;;;;;;5072162;28;20267;-73
2023/03/11 05:22:57;;;;;;;4.27;1.70;;;-0.10;99.90;;;;;;5072361;28;20590;-73
2023/03/11 05:25:24;;;;;;;3.00;1.67;;;-0.10;99.90;;;;;;5072141;28;20254;-73
2023/03/11 05:27:51;;;;;;;3.00;1.40;;;-0.20;99.90;;;;;;5075828;28;20233;-73
2023/03/11 05:30:18;;;;;;;2.00;1.80;;;-0.10;99.90;;;;;;5076032;28;20602;-72
2023/03/11 05:32:44;;;;;;;4.13;1.33;;;-0.20;99.90;;;;;;5075959;28;20232;-72
2023/03/11 05:35:11;;;;;;;3.07;1.60;;;-0.20;99.90;;;;;;5075906;28;20231;-72
2023/03/11 05:37:39;;;;;;;3.10;1.73;;;-0.10;99.90;;;;;;5075826;28;20227;-72
2023/03/11 05:40:07;;;;;;;4.73;1.50;;;-0.10;99.90;;;;;;5075637;28;20655;-73
2023/03/11 05:42:35;;;;;;;2.50;1.50;;;-0.20;99.90;;;;;;5075811;28;20201;-72
2023/03/11 05:45:02;;;;;;;2.97;1.90;;;-0.10;99.90;;;;;;5075859;28;20208;-72
2023/03/11 05:47:29;;;;;;;4.20;1.67;;;-0.10;99.90;;;;;;5075484;28;20661;-72
2023/03/11 05:49:55;;;;;;;4.57;1.80;;;-0.20;99.90;;;;;;5075527;28;20197;-72
2023/03/11 05:52:22;;;;;;;3.17;1.67;;;-0.30;99.90;;;;;;5075297;28;20232;-72
2023/03/11 05:54:51;;;;;;;5.63;2.10;;;-0.20;99.90;;;;;;5075388;28;20228;-72
2023/03/11 05:57:18;;;;;;;3.43;1.77;;;-0.20;99.90;;;;;;5075317;28;20726;-72
2023/03/11 05:59:45;;;;;;;2.90;1.90;;;-0.20;99.90;;;;;;5075554;28;20232;-72
2023/03/11 06:02:12;;;;;;;3.13;1.60;;;-0.30;99.90;;;;;;5075479;28;20225;-72
2023/03/11 06:04:38;;;;;;;5.50;1.70;;;-0.30;99.90;;;;;;5075277;28;20687;-73
2023/03/11 06:07:05;;;;;;;4.57;1.60;;;-0.30;99.90;;;;;;5075032;28;20231;-73
2023/03/11 06:09:32;;;;;;;2.17;1.43;;;-0.30;99.90;;;;;;5075569;28;20268;-72
2023/03/11 06:12:00;;;;;;;3.30;1.93;;;-0.30;99.90;;;;;;5075852;28;20292;-74
2023/03/11 06:14:30;;;;;;;3.97;2.00;;;-0.30;99.90;;;;;;5075432;28;20243;-78
2023/03/11 06:16:57;;;;;;;3.73;1.67;;;-0.20;99.90;;;;;;5075880;28;20621;-81
2023/03/11 06:19:23;;;;;;;4.70;1.80;;;-0.20;99.90;;;;;;5075717;28;20262;-78
2023/03/11 06:21:50;;;;;;;3.63;1.90;;;-0.20;99.90;;;;;;5075200;28;20263;-77
2023/03/11 06:24:17;;;;;;;3.77;1.67;;;-0.10;99.90;;;;;;5075896;28;20197;-80
2023/03/11 06:26:43;;;;;;;5.33;1.77;;;-0.20;99.90;;;;;;5075311;28;20197;-75
2023/03/11 06:29:14;;;;;;;2.63;2.10;;;-0.20;99.90;;;;;;5075094;28;20193;-75
2023/03/11 06:31:40;;;;;;;3.10;1.73;;;-0.20;99.90;;;;;;5075046;28;20247;-74
2023/03/11 06:34:08;;;;;;;3.10;1.80;;;-0.20;99.90;;;;;;5074934;28;20652;-80
2023/03/11 06:36:35;;;;;;;8.53;3.10;;;-0.10;99.90;;;;;;5075220;28;20262;-76
2023/03/11 06:39:02;;;;;;;4.43;2.27;;;-0.10;99.90;;;;;;5074295;28;20733;-70
2023/03/11 06:41:29;;;;;;;7.90;4.80;;;-0.10;99.90;;;;;;5074701;28;20588;-72
2023/03/11 06:43:58;;;;;;;9.63;6.03;;;0.00;99.90;;;;;;5072945;28;20228;-72
2023/03/11 06:46:26;;;;;;;10.63;5.53;;;0.00;99.90;;;;;;5072171;28;20259;-71
2023/03/11 06:48:54;;;;;;;7.90;2.93;;;0.00;99.90;;;;;;5072337;28;20232;-71
2023/03/11 06:51:21;;;;;;;7.23;3.30;;;0.00;99.90;;;;;;5072604;28;20224;-72
2023/03/11 06:53:48;;;;;;;5.70;2.47;;;0.00;99.90;;;;;;5072535;28;20315;-72
2023/03/11 06:56:15;;;;;;;6.37;2.37;;;0.00;99.90;;;;;;5072362;28;20197;-71
2023/03/11 06:58:43;;;;;;;5.10;2.57;;;0.10;99.90;;;;;;5073465;28;20224;-71
2023/03/11 07:01:12;;;;;;;3.77;2.10;;;0.00;99.90;;;;;;5074266;28;20619;-72
2023/03/11 07:03:40;;;;;;;5.33;2.20;;;0.10;99.90;;;;;;5074033;28;20627;-71
2023/03/11 07:06:10;;;;;;;4.83;2.30;;;0.10;99.90;;;;;;5074229;28;20236;-72
2023/03/11 07:08:37;;;;;;;5.13;1.90;;;0.10;99.90;;;;;;5073887;28;20260;-73
2023/03/11 07:11:05;;;;;;;2.87;1.93;;;0.10;99.90;;;;;;5073951;28;20235;-71
2023/03/11 07:13:32;;;;;;;4.10;2.00;;;0.10;99.90;;;;;;5073916;28;20236;-71
2023/03/11 07:16:03;;;;;;;3.23;2.00;;;0.10;99.90;;;;;;5074062;28;20243;-71
2023/03/11 07:18:30;;;;;;;5.87;2.27;;;0.20;99.90;;;;;;5073965;28;20228;-72
2023/03/11 07:20:58;;;;;;;6.90;1.90;;;0.40;99.90;;;;;;5073790;28;20274;-72
2023/03/11 07:23:25;;;;;;;3.10;2.13;;;0.40;99.90;;;;;;5073758;28;20236;-72
2023/03/11 07:25:51;;;;;;;5.97;1.80;;;0.40;99.90;;;;;;5073711;28;20221;-72
2023/03/11 07:28:18;;;;;;;4.47;2.00;;;0.30;99.90;;;;;;5073526;28;20197;-72
2023/03/11 07:30:45;;;;;;;4.50;2.37;;;0.30;99.90;;;;;;5073479;28;20726;-72
2023/03/11 07:33:12;;;;;;;7.07;2.30;;;0.30;99.90;;;;;;5073736;28;20208;-72
2023/03/11 07:35:38;;;;;;;6.00;2.13;;;0.40;99.90;;;;;;5073557;28;20201;-72
2023/03/11 07:38:07;;;;;;;3.00;1.83;;;0.50;99.90;;;;;;5073308;28;20652;-72
2023/03/11 07:40:33;;;;;;;4.70;2.03;;;0.70;99.90;;;;;;5073199;28;20289;-72
2023/03/11 07:43:00;;;;;;;17.70;10.30;;;0.70;99.90;;;;;;5073285;28;20200;-72
2023/03/11 07:45:27;;;;;;;15.17;8.10;;;0.60;99.90;;;;;;5076312;28;20623;-72
2023/03/11 07:47:53;;;;;;;4.17;2.80;;;0.70;99.90;;;;;;5093637;28;20203;-71
2023/03/11 07:50:21;;;;;;;4.40;3.90;;;0.70;99.90;;;;;;5092619;28;20631;-71
2023/03/11 07:52:48;;;;;;;10.07;7.20;;;0.80;99.90;;;;;;5093439;28;20275;-71
2023/03/11 07:55:16;;;;;;;11.07;7.83;;;0.80;99.90;;;;;;5093350;28;20255;-72
2023/03/11 07:57:43;;;;;;;11.87;4.90;;;0.90;99.90;;;;;;5093206;28;20227;-71
2023/03/11 08:00:11;;;;;;;4.53;2.83;;;1.00;99.90;;;;;;5093313;28;20652;-72
2023/03/11 08:02:38;;;;;;;10.83;3.87;;;0.90;99.90;;;;;;5091866;28;20220;-71
2023/03/11 08:05:05;;;;;;;4.50;2.10;;;1.10;99.90;;;;;;5093280;28;20200;-71
2023/03/11 08:07:32;;;;;;;5.47;2.23;;;1.00;99.90;;;;;;5093149;28;20275;-71
2023/03/11 08:09:59;;;;;;;2.93;2.30;;;1.10;99.90;;;;;;5093113;28;20224;-71
2023/03/11 08:12:27;;;;;;;6.20;2.30;;;1.00;99.90;;;;;;5093250;28;20200;-71
2023/03/11 08:14:54;;;;;;;4.60;2.37;;;0.90;99.90;;;;;;5093231;28;20200;-73
2023/03/11 08:17:20;;;;;;;9.33;2.70;;;0.70;99.90;;;;;;5093084;28;20254;-71
2023/03/11 08:19:49;;;;;;;4.70;2.70;;;0.60;99.90;;;;;;5092924;28;20224;-71
2023/03/11 08:22:15;;;;;;;3.63;2.50;;;0.70;99.90;;;;;;5092762;28;20687;-71
2023/03/11 08:24:42;;;;;;;5.50;2.87;;;0.80;99.90;;;;;;5093113;28;20239;-72
2023/03/11 08:27:09;;;;;;;3.73;2.13;;;1.00;99.90;;;;;;5092962;28;20231;-72
2023/03/11 08:29:36;;;;;;;6.50;2.80;;;1.10;99.90;;;;;;5092652;28;20601;-71
2023/03/11 08:32:04;;;;;;;4.73;2.73;;;1.10;99.90;;;;;;5092941;28;20255;-72
2023/03/11 08:34:31;;;;;;;7.70;2.50;;;1.40;99.90;;;;;;5092905;28;20196;-72
2023/03/11 08:36:58;;;;;;;11.27;3.33;;;1.50;99.90;;;;;;5092755;28;20232;-72
2023/03/11 08:39:24;;;;;;;5.87;2.40;;;1.70;99.90;;;;;;5092910;28;20709;-72
2023/03/11 08:41:51;;;;;;;4.30;2.50;;;1.50;99.90;;;;;;5092811;28;20259;-72
2023/03/11 08:44:18;;;;;;;3.70;2.23;;;1.70;99.90;;;;;;5092727;28;20227;-72
2023/03/11 08:46:45;;;;;;;4.50;2.60;;;1.60;99.90;;;;;;5092802;28;20232;-71
2023/03/11 08:49:12;;;;;;;4.43;2.67;;;1.80;99.90;;;;;;5092730;28;20224;-71
2023/03/11 08:51:39;;;;;;;6.20;2.67;;;1.80;99.90;;;;;;5092680;28;20232;-72
2023/03/11 08:54:05;;;;;;;10.13;4.33;;;2.00;99.90;;;;;;5092658;28;20224;-72
2023/03/11 08:56:32;;;;;;;7.73;5.13;;;2.20;99.90;;;;;;5092754;28;20196;-72
2023/03/11 08:58:59;;;;;;;6.23;4.13;;;2.20;99.90;;;;;;5092617;28;20779;-71
2023/03/11 09:01:25;;;;;;;6.10;3.50;;;2.20;99.90;;;;;;5093777;28;20273;-71
2023/03/11 09:03:53;;;;;;;6.33;3.97;;;2.00;99.90;;;;;;5096583;28;20232;-72
2023/03/11 09:06:20;;;;;;;5.23;2.83;;;2.10;99.90;;;;;;5096403;28;20610;-72
2023/03/11 09:08:48;;;;;;;14.10;7.87;;;2.20;99.90;;;;;;5096297;28;20228;-72
2023/03/11 09:11:15;;;;;;;7.87;3.43;;;2.20;99.90;;;;;;5096030;28;20690;-72
2023/03/11 09:13:42;;;;;;;4.07;3.10;;;2.30;99.90;;;;;;5096532;28;20615;-72
2023/03/11 09:16:10;;;;;;;3.87;2.63;;;2.70;99.90;;;;;;5096341;28;20193;-72
2023/03/11 09:18:37;;;;;;;4.60;2.73;;;2.30;99.90;;;;;;5096163;28;20246;-72
2023/03/11 09:21:05;;;;;;;4.30;3.00;;;2.30;99.90;;;;;;5096463;28;20196;-72
2023/03/11 09:23:32;;;;;;;3.47;2.70;;;2.50;99.90;;;;;;5096060;28;20231;-72
2023/03/11 09:25:58;;;;;;;4.13;2.83;;;2.70;99.90;;;;;;5096226;28;20228;-71
2023/03/11 09:28:25;;;;;;;4.87;2.60;;;2.70;99.90;;;;;;5096074;28;20233;-72
2023/03/11 09:30:51;;;;;;;3.57;2.20;;;2.60;99.90;;;;;;5095796;28;20233;-72
2023/03/11 09:33:18;;;;;;;3.80;2.23;;;2.90;99.90;;;;;;5095509;28;20202;-72
2023/03/11 09:35:45;;;;;;;3.23;2.90;;;2.70;99.90;;;;;;5095887;28;20198;-71
2023/03/11 09:38:13;;;;;;;3.57;2.53;;;2.60;99.90;;;;;;5096002;28;20202;-72
2023/03/11 09:40:51;;;;;;;5.37;2.80;;;2.90;99.90;;;;;;5095706;28;20202;-72
2023/03/11 09:43:27;;;;;;;2.90;2.47;;;2.60;99.90;;;;;;5095752;28;20221;-72
2023/03/11 09:46:04;;;;;;;5.70;3.10;;;2.80;99.90;;;;;;5095625;28;20238;-71
2023/03/11 09:48:37;;;;;;;4.70;2.53;;;3.30;99.90;;;;;;5087221;28;20225;-74
2023/03/11 09:51:10;;;;;;;4.33;1.93;;;3.10;99.90;;;;;;5081553;28;20212;-73
2023/03/11 09:53:41;;;;;;;10.73;5.83;;;2.90;99.90;;;;;;5084497;28;20195;-73
2023/03/11 09:56:09;;;;;;;4.33;2.10;;;3.60;99.90;;;;;;5083019;28;20602;-73
2023/03/11 09:58:39;;;;;;;7.53;3.40;;;3.00;99.90;;;;;;5081952;28;20252;-73
2023/03/11 10:01:15;;;;;;;11.73;6.03;;;3.00;99.90;;;;;;5074796;28;20204;-80
2023/03/11 10:03:42;;;;;;;6.67;3.73;;;3.20;99.90;;;;;;5074834;28;20220;-72
2023/03/11 10:06:15;;;;;;;4.30;2.50;;;3.30;99.90;;;;;;5073942;28;20233;-71
2023/03/11 10:08:47;;;;;;;5.83;2.77;;;3.10;99.90;;;;;;5074783;28;20232;-72
2023/03/11 10:11:35;;;;;;;3.47;2.20;;;2.90;99.90;;;;;;5073250;28;20201;-72
2023/03/11 10:14:14;;;;;;;4.27;2.30;;;2.70;99.90;;;;;;5071811;28;20209;-72
2023/03/11 10:16:49;;;;;;;3.83;1.97;;;2.70;99.90;;;;;;5072931;28;20684;-71
2023/03/11 10:19:30;;;;;;;6.07;2.80;;;2.60;99.90;;;;;;5072928;28;20228;-71
2023/03/11 10:22:05;;;;;;;3.00;2.30;;;2.50;99.90;;;;;;5073450;28;20252;-71
2023/03/11 10:24:45;;;;;;;4.90;2.30;;;2.20;99.90;;;;;;5073542;28;20232;-72
2023/03/11 10:27:16;;;;;;;3.40;2.63;;;1.80;99.90;;;;;;5073959;28;20197;-71
2023/03/11 10:29:49;;;;;;;5.33;2.67;;;1.80;99.90;;;;;;5074354;28;20620;-72
2023/03/11 10:32:20;;;;;;;6.33;2.57;;;1.90;99.90;;;;;;5074552;28;20197;-71
2023/03/11 10:34:52;;;;;;;4.00;2.50;;;2.40;99.90;;;;;;5074564;28;20240;-73
2023/03/11 10:37:24;;;;;;;4.53;2.60;;;2.80;99.90;;;;;;5074437;28;20229;-72
2023/03/11 10:39:52;;;;;;;5.83;2.60;;;2.90;99.90;;;;;;5074134;28;20255;-71
2023/03/11 10:42:23;;;;;;;5.67;2.83;;;3.20;99.90;;;;;;5074393;28;20229;-71
2023/03/11 10:44:49;;;;;;;4.30;2.30;;;3.90;99.90;;;;;;5074407;28;20204;-71
2023/03/11 10:47:18;;;;;;;3.70;2.30;;;5.20;99.90;;;;;;5074097;28;20237;-72
2023/03/11 10:49:45;;;;;;;2.87;2.20;;;5.50;99.90;;;;;;5074231;28;20339;-72
2023/03/11 10:52:11;;;;;;;5.47;3.13;;;5.50;99.90;;;;;;5074112;28;20733;-73
2023/03/11 10:54:42;;;;;;;5.00;4.17;;;5.50;99.90;;;;;;5077128;28;20648;-72
2023/03/11 10:57:24;;;;;;;4.77;3.90;;;5.20;99.90;;;;;;5072058;28;20656;-73
2023/03/11 10:59:52;;;;;;;4.43;3.30;;;5.00;99.90;;;;;;5078021;28;20230;-77
2023/03/11 11:02:24;;;;;;;4.67;3.60;;;4.40;99.90;;;;;;5079603;28;20274;-72
2023/03/11 11:05:05;;;;;;;3.73;2.60;;;3.80;99.90;;;;;;5076022;28;20196;-72
2023/03/11 11:07:34;;;;;;;4.30;2.80;;;3.70;99.90;;;;;;5082631;28;20220;-70
2023/03/11 11:10:16;;;;;;;5.10;3.53;;;3.30;99.90;;;;;;5081727;28;20642;-72
2023/03/11 11:12:55;;;;;;;6.63;4.00;;;3.00;99.90;;;;;;5079432;28;20231;-72
2023/03/11 11:15:24;;;;;;;9.43;4.23;;;2.60;99.90;;;;;;5079063;28;20284;-71
2023/03/11 11:17:54;;;;;;;4.07;2.53;;;2.70;99.90;;;;;;5083670;28;20219;-73
2023/03/11 11:20:23;;;;;;;4.47;3.10;;;2.90;99.90;;;;;;5079714;28;20193;-71
2023/03/11 11:22:52;;;;;;;5.03;3.20;;;3.20;99.90;;;;;;5083529;28;20223;-73
2023/03/11 11:25:28;;;;;;;4.97;2.23;;;3.60;99.90;;;;;;5079482;28;20193;-72
2023/03/11 11:27:58;;;;;;;3.10;2.00;;;4.00;99.90;;;;;;5075314;28;20225;-71
2023/03/11 11:30:29;;;;;;;3.30;2.60;;;3.70;99.90;;;;;;5075782;28;20224;-73
2023/03/11 11:32:56;;;;;;;3.97;2.23;;;4.00;99.90;;;;;;5085674;28;20220;-72
2023/03/11 11:35:24;;;;;;;2.50;2.00;;;3.90;99.90;;;;;;5077003;28;20228;-70
2023/03/11 11:37:53;;;;;;;3.13;2.23;;;3.90;99.90;;;;;;5082975;28;20196;-69
2023/03/11 11:40:28;;;;;;;2.83;2.27;;;4.10;99.90;;;;;;5072800;28;20666;-71
2023/03/11 11:42:58;;;;;;;2.80;1.83;;;4.00;99.90;;;;;;5080268;28;20688;-71
2023/03/11 11:45:37;;;;;;;3.73;2.00;;;3.70;99.90;;;;;;5073581;28;20231;-70
2023/03/11 11:48:10;;;;;;;2.87;2.07;;;3.60;99.90;;;;;;5084435;28;20218;-70
2023/03/11 11:50:41;;;;;;;4.13;2.60;;;3.60;99.90;;;;;;5077989;28;20231;-74
2023/03/11 11:53:19;;;;;;;2.63;2.30;;;3.40;99.90;;;;;;5093234;28;20243;-71
2023/03/11 11:55:48;;;;;;;4.73;2.33;;;3.20;99.90;;;;;;5077118;28;20203;-70
2023/03/11 11:58:16;;;;;;;3.50;2.40;;;3.20;99.90;;;;;;5076842;28;20277;-70
2023/03/11 12:00:57;;;;;;;3.60;2.30;;;3.10;99.90;;;;;;5091562;28;20599;-72
2023/03/11 12:03:55;;;;;;;7.30;2.70;;;3.00;99.90;;;;;;5087512;28;20710;-71
2023/03/11 12:06:31;;;;;;;3.07;2.50;;;2.90;99.90;;;;;;5047046;28;20272;-70
2023/03/11 12:09:07;;;;;;;6.07;2.73;;;2.70;99.90;;;;;;5072474;28;20257;-73
2023/03/11 12:11:39;;;;;;;4.60;2.50;;;2.70;99.90;;;;;;5072922;28;20239;-70
2023/03/11 12:14:16;;;;;;;3.73;2.97;;;2.60;99.90;;;;;;5072838;28;20242;-70
2023/03/11 12:16:51;;;;;;;4.43;3.00;;;2.40;99.90;;;;;;5072459;28;20201;-70
2023/03/11 12:19:34;;;;;;;4.63;3.73;;;2.40;99.90;;;;;;5072753;28;20236;-71
2023/03/11 12:22:47;;;;;;;6.13;3.17;;;2.40;99.90;;;;;;5072592;28;20698;-71
2023/03/11 12:25:22;;;;;;;4.83;3.20;;;2.30;99.90;;;;;;5010773;28;20258;-71
2023/03/11 12:27:56;;;;;;;4.80;3.57;;;2.40;99.90;;;;;;5068817;28;20254;-71
2023/03/11 12:30:29;;;;;;;4.37;2.63;;;2.50;99.90;;;;;;5072619;28;20239;-71
2023/03/11 12:32:58;;;;;;;5.53;3.07;;;2.50;99.90;;;;;;5072166;28;20315;-71
2023/03/11 12:35:27;;;;;;;5.80;4.00;;;2.60;99.90;;;;;;5070395;28;20526;-71
2023/03/11 12:38:07;;;;;;;5.40;3.07;;;2.50;99.90;;;;;;5070141;28;20672;-72
2023/03/11 12:41:00;;;;;;;4.10;2.70;;;2.70;99.90;;;;;;5070550;28;20876;-71
2023/03/11 12:44:10;;;;;;;4.90;4.17;;;2.70;99.90;;;;;;5070487;28;20585;-71
2023/03/11 12:47:18;;;;;;;4.40;2.67;;;2.70;99.90;;;;;;5070515;28;20284;-71
2023/03/11 12:49:46;;;;;;;4.93;3.10;;;2.60;99.90;;;;;;5041931;28;20694;-71
2023/03/11 12:52:25;;;;;;;3.70;2.70;;;2.70;99.90;;;;;;5072554;28;20607;-71
2023/03/11 12:55:36;;;;;;;5.13;3.07;;;2.40;99.90;;;;;;5072433;28;20202;-70
2023/03/11 12:58:38;;;;;;;5.10;2.73;;;2.40;99.90;;;;;;5072544;28;20205;-71
2023/03/11 13:01:24;;;;;;;3.20;2.33;;;2.40;99.90;;;;;;5072362;28;20198;-72
2023/03/11 13:04:03;;;;;;;3.87;2.77;;;2.50;99.90;;;;;;5072375;28;20259;-72
2023/03/11 13:07:09;;;;;;;4.80;2.50;;;2.50;99.90;;;;;;5072253;28;20733;-70